createdAt,value
2022-11-08T00:00:20.538Z,12.13
2022-11-08T00:02:48.500Z,12.08
2022-11-08T00:05:34.122Z,12.17
2022-11-08T00:08:22.849Z,12.15
2022-11-08T00:11:08.125Z,12.19
2022-11-08T00:13:53.660Z,12.20
2022-11-08T00:16:21.383Z,12.18
2022-11-08T00:18:49.083Z,12.13
2022-11-08T00:21:16.871Z,12.17
2022-11-08T00:23:45.952Z,12.13
2022-11-08T00:26:13.677Z,12.14
2022-11-08T00:28:41.501Z,12.20
2022-11-08T00:31:09.220Z,12.23
2022-11-08T00:33:37.425Z,11.80
2022-11-08T00:36:05.667Z,12.15
2022-11-08T00:38:33.382Z,12.20
2022-11-08T00:41:02.444Z,12.28
2022-11-08T00:43:30.137Z,12.18
2022-11-08T00:45:57.839Z,12.23
2022-11-08T00:48:25.508Z,12.21
2022-11-08T00:50:53.266Z,12.25
2022-11-08T00:53:20.965Z,12.21
2022-11-08T00:55:48.716Z,12.24
2022-11-08T00:58:18.826Z,12.24
2022-11-08T01:00:48.049Z,11.77
2022-11-08T01:03:21.797Z,12.24
2022-11-08T01:05:50.489Z,12.26
2022-11-08T01:08:19.046Z,12.24
2022-11-08T01:10:49.352Z,12.10
2022-11-08T01:13:19.723Z,12.22
2022-11-08T01:15:47.709Z,12.23
2022-11-08T01:18:17.347Z,12.30
2022-11-08T01:20:46.947Z,12.23
2022-11-08T01:23:15.155Z,12.26
2022-11-08T01:25:44.628Z,12.22
2022-11-08T01:28:13.071Z,12.17
2022-11-08T01:30:43.933Z,12.17
2022-11-08T01:33:12.491Z,12.19
2022-11-08T01:35:40.352Z,12.14
2022-11-08T01:38:09.460Z,12.22
2022-11-08T01:40:43.928Z,12.22
2022-11-08T01:43:36.107Z,12.07
2022-11-08T01:46:36.197Z,12.22
2022-11-08T01:49:19.048Z,12.19
2022-11-08T01:51:51.371Z,12.23
2022-11-08T01:54:26.739Z,12.15
2022-11-08T01:56:55.458Z,12.20
2022-11-08T01:59:23.953Z,12.21
2022-11-08T02:01:53.592Z,12.12
2022-11-08T02:04:21.564Z,12.23
2022-11-08T02:06:50.136Z,12.20
2022-11-08T02:09:19.855Z,12.18
2022-11-08T02:11:49.169Z,12.23
2022-11-08T02:14:18.861Z,12.18
2022-11-08T02:16:46.579Z,12.00
2022-11-08T02:19:23.018Z,12.19
2022-11-08T02:21:56.208Z,12.20
2022-11-08T02:24:25.589Z,12.09
2022-11-08T02:26:55.946Z,12.09
2022-11-08T02:29:28.506Z,12.24
2022-11-08T02:31:57.071Z,12.05
2022-11-08T02:34:29.253Z,12.16
2022-11-08T02:36:57.695Z,12.21
2022-11-08T02:39:26.856Z,12.21
2022-11-08T02:41:54.602Z,12.22
2022-11-08T02:44:22.375Z,12.22
2022-11-08T02:46:50.115Z,12.15
2022-11-08T02:49:18.045Z,12.20
2022-11-08T02:51:45.739Z,12.22
2022-11-08T02:54:13.423Z,12.22
2022-11-08T02:56:42.511Z,12.20
2022-11-08T02:59:10.207Z,12.23
2022-11-08T03:01:38.176Z,12.15
2022-11-08T03:04:06.369Z,12.19
2022-11-08T03:06:34.098Z,12.15
2022-11-08T03:09:01.799Z,12.07
2022-11-08T03:11:29.720Z,12.20
2022-11-08T03:13:59.320Z,12.23
2022-11-08T03:16:27.066Z,12.15
2022-11-08T03:18:54.956Z,12.15
2022-11-08T03:21:22.624Z,12.20
2022-11-08T03:23:50.335Z,12.16
2022-11-08T03:26:18.210Z,12.12
2022-11-08T03:28:46.002Z,12.14
2022-11-08T03:31:15.099Z,12.14
2022-11-08T03:33:42.814Z,12.06
2022-11-08T03:36:11.043Z,12.02
2022-11-08T03:38:38.736Z,12.02
2022-11-08T03:41:06.885Z,11.99
2022-11-08T03:43:34.650Z,12.00
2022-11-08T03:46:02.406Z,11.56
2022-11-08T03:48:31.503Z,12.03
2022-11-08T03:50:59.180Z,12.01
2022-11-08T03:53:26.868Z,12.04
2022-11-08T03:55:54.695Z,12.01
2022-11-08T03:58:22.424Z,12.04
2022-11-08T04:00:50.285Z,12.03
2022-11-08T04:03:18.192Z,12.05
2022-11-08T04:05:47.497Z,12.02
2022-11-08T04:08:15.476Z,12.02
2022-11-08T04:10:43.479Z,12.05
2022-11-08T04:13:28.917Z,12.05
2022-11-08T04:15:58.080Z,12.08
2022-11-08T04:18:43.447Z,12.05
2022-11-08T04:21:21.681Z,12.06
2022-11-08T04:23:51.175Z,12.03
2022-11-08T04:26:19.174Z,12.05
2022-11-08T04:28:46.936Z,12.05
2022-11-08T04:31:16.283Z,11.84
2022-11-08T04:33:44.293Z,11.78
2022-11-08T04:36:16.036Z,11.74
2022-11-08T04:38:44.085Z,12.06
2022-11-08T04:41:13.294Z,12.04
2022-11-08T04:43:41.654Z,12.08
2022-11-08T04:46:11.082Z,12.08
2022-11-08T04:48:39.489Z,12.11
2022-11-08T04:51:09.619Z,11.99
2022-11-08T04:53:38.751Z,11.69
2022-11-08T04:56:08.659Z,12.10
2022-11-08T04:58:37.410Z,12.06
2022-11-08T05:01:06.637Z,12.08
2022-11-08T05:03:34.667Z,12.12
2022-11-08T05:06:03.186Z,12.04
2022-11-08T05:08:31.245Z,11.57
2022-11-08T05:11:04.596Z,11.94
2022-11-08T05:13:32.442Z,12.04
2022-11-08T05:16:01.967Z,12.03
2022-11-08T05:18:29.904Z,11.79
2022-11-08T05:21:15.932Z,11.76
2022-11-08T05:23:44.165Z,11.97
2022-11-08T05:26:14.885Z,11.92
2022-11-08T05:28:42.743Z,11.93
2022-11-08T05:31:11.107Z,11.75
2022-11-08T05:33:39.015Z,11.71
2022-11-08T05:36:10.301Z,11.77
2022-11-08T05:38:38.672Z,11.64
2022-11-08T05:41:08.259Z,11.68
2022-11-08T05:43:37.565Z,11.58
2022-11-08T05:46:05.579Z,11.17
2022-11-08T05:48:33.646Z,11.29
2022-11-08T05:51:01.501Z,11.36
2022-11-08T05:53:29.685Z,11.44
2022-11-08T05:55:59.382Z,11.43
2022-11-08T05:58:27.452Z,11.39
2022-11-08T06:01:02.311Z,11.41
2022-11-08T06:03:30.995Z,11.40
2022-11-08T06:06:03.504Z,11.30
2022-11-08T06:08:31.248Z,11.32
2022-11-08T06:11:04.049Z,11.33
2022-11-08T06:13:32.064Z,11.27
2022-11-08T06:16:02.713Z,11.28
2022-11-08T06:18:31.093Z,11.29
2022-11-08T06:20:59.441Z,11.09
2022-11-08T06:23:27.511Z,11.33
2022-11-08T06:25:55.634Z,11.26
2022-11-08T06:28:23.435Z,11.24
2022-11-08T06:30:51.550Z,11.33
2022-11-08T06:33:21.335Z,11.34
2022-11-08T06:35:49.336Z,11.36
2022-11-08T06:38:17.064Z,11.34
2022-11-08T06:40:44.910Z,11.15
2022-11-08T06:43:18.178Z,11.30
2022-11-08T06:45:47.550Z,11.21
2022-11-08T06:48:15.534Z,11.21
2022-11-08T06:50:45.031Z,11.20
2022-11-08T06:53:14.310Z,11.26
2022-11-08T06:55:42.216Z,11.29
2022-11-08T06:58:11.462Z,11.29
2022-11-08T07:00:39.483Z,11.23
2022-11-08T07:03:07.267Z,11.18
2022-11-08T07:05:36.683Z,11.22
2022-11-08T07:08:06.511Z,11.26
2022-11-08T07:10:34.974Z,11.21
2022-11-08T07:13:04.455Z,11.30
2022-11-08T07:15:33.043Z,11.18
2022-11-08T07:18:02.683Z,11.19
2022-11-08T07:20:31.145Z,11.21
2022-11-08T07:22:59.393Z,11.24
2022-11-08T07:25:29.603Z,11.31
2022-11-08T07:27:57.337Z,11.27
2022-11-08T07:30:25.770Z,11.26
2022-11-08T07:32:53.687Z,11.31
2022-11-08T07:35:21.397Z,11.15
2022-11-08T07:37:49.135Z,10.91
2022-11-08T07:40:17.323Z,11.19
2022-11-08T07:45:34.170Z,11.22
2022-11-08T07:48:09.782Z,11.31
2022-11-08T07:50:38.969Z,11.25
2022-11-08T07:53:06.722Z,11.40
2022-11-08T07:55:37.465Z,11.51
2022-11-08T07:58:07.568Z,11.61
2022-11-08T08:00:37.749Z,11.70
2022-11-08T08:03:07.129Z,11.67
2022-11-08T08:05:37.251Z,11.82
2022-11-08T08:08:05.726Z,11.86
2022-11-08T08:10:33.843Z,11.92
2022-11-08T08:13:01.658Z,11.78
2022-11-08T08:15:30.761Z,11.94
2022-11-08T08:18:01.172Z,11.87
2022-11-08T08:20:29.443Z,11.55
2022-11-08T08:22:57.143Z,11.84
2022-11-08T08:25:25.021Z,11.90
2022-11-08T08:27:54.536Z,11.75
2022-11-08T08:30:23.588Z,12.29
2022-11-08T08:33:21.840Z,13.40
2022-11-08T08:35:43.834Z,15.79
2022-11-08T08:38:13.808Z,16.90
2022-11-08T08:40:41.846Z,16.38
2022-11-08T08:43:09.650Z,17.64
2022-11-08T08:45:37.787Z,16.51
2022-11-08T08:48:07.439Z,16.67
2022-11-08T08:50:35.255Z,17.07
2022-11-08T08:53:04.828Z,17.01
2022-11-08T08:55:35.242Z,17.62
2022-11-08T08:58:03.523Z,17.33
2022-11-08T09:03:20.745Z,18.93
2022-11-08T09:05:48.724Z,18.44
2022-11-08T09:08:16.580Z,16.95
2022-11-08T09:10:44.301Z,17.08
2022-11-08T09:13:12.038Z,16.72
2022-11-08T09:15:39.981Z,16.39
2022-11-08T09:18:09.532Z,16.68
2022-11-08T09:20:39.447Z,15.01
2022-11-08T09:23:07.120Z,15.56
2022-11-08T09:25:34.847Z,15.72
2022-11-08T09:28:02.527Z,15.57
2022-11-08T09:30:30.205Z,14.80
2022-11-08T09:33:02.379Z,14.57
2022-11-08T09:35:31.152Z,15.47
2022-11-08T09:38:00.331Z,14.45
2022-11-08T09:40:32.849Z,13.76
2022-11-08T09:43:15.966Z,14.78
2022-11-08T09:45:47.029Z,14.49
2022-11-08T09:48:23.191Z,14.24
2022-11-08T09:50:54.648Z,14.39
2022-11-08T09:53:35.230Z,13.74
2022-11-08T09:56:08.811Z,13.81
2022-11-08T09:58:41.997Z,13.76
2022-11-08T10:01:12.384Z,13.76
2022-11-08T10:03:41.347Z,13.72
2022-11-08T10:06:28.544Z,13.86
2022-11-08T10:09:07.176Z,13.57
2022-11-08T10:11:51.980Z,13.52
2022-11-08T10:14:50.669Z,13.69
2022-11-08T10:17:35.824Z,13.77
2022-11-08T10:20:17.741Z,13.74
2022-11-08T10:22:53.468Z,13.79
2022-11-08T10:25:26.031Z,14.16
2022-11-08T10:27:57.487Z,13.66
2022-11-08T10:30:31.610Z,14.51
2022-11-08T10:32:59.325Z,14.83
2022-11-08T10:35:32.290Z,15.00
2022-11-08T10:38:02.226Z,14.92
2022-11-08T10:40:43.979Z,14.77
2022-11-08T10:43:15.858Z,15.30
2022-11-08T10:45:43.660Z,15.48
2022-11-08T10:48:13.034Z,15.29
2022-11-08T10:50:45.249Z,15.07
2022-11-08T10:53:19.785Z,15.50
2022-11-08T10:55:52.010Z,14.96
2022-11-08T10:58:32.346Z,15.79
2022-11-08T11:01:02.574Z,14.65
2022-11-08T11:03:30.515Z,15.21
2022-11-08T11:06:02.955Z,15.22
2022-11-08T11:08:31.235Z,14.64
2022-11-08T11:11:25.126Z,14.40
2022-11-08T11:14:16.547Z,14.89
2022-11-08T11:16:56.509Z,14.54
2022-11-08T11:19:25.755Z,14.66
2022-11-08T11:21:58.502Z,14.99
2022-11-08T11:24:26.848Z,15.11
2022-11-08T11:27:05.206Z,15.64
2022-11-08T11:29:33.944Z,14.98
2022-11-08T11:32:23.421Z,15.73
2022-11-08T11:34:55.815Z,16.44
2022-11-08T11:37:30.852Z,15.82
2022-11-08T11:40:08.351Z,15.82
2022-11-08T11:42:47.005Z,15.51
2022-11-08T11:45:19.778Z,15.74
2022-11-08T11:47:53.187Z,16.10
2022-11-08T11:50:30.086Z,15.83
2022-11-08T11:52:59.014Z,15.45
2022-11-08T11:55:35.806Z,15.77
2022-11-08T11:58:15.525Z,15.58
2022-11-08T12:00:52.213Z,15.36
2022-11-08T12:03:47.155Z,15.32
2022-11-08T12:06:26.066Z,15.26
2022-11-08T12:09:37.679Z,15.35
2022-11-08T12:12:19.855Z,15.58
2022-11-08T12:14:57.992Z,15.44
2022-11-08T12:17:42.594Z,14.60
2022-11-08T12:20:32.822Z,14.75
2022-11-08T12:23:15.296Z,15.01
2022-11-08T12:25:49.712Z,14.99
2022-11-08T12:28:37.391Z,14.25
2022-11-08T12:31:20.191Z,14.46
2022-11-08T12:34:00.819Z,14.95
2022-11-08T12:36:36.439Z,14.62
2022-11-08T12:39:22.193Z,15.28
2022-11-08T12:42:02.232Z,15.23
2022-11-08T12:44:56.071Z,15.64
2022-11-08T12:47:34.790Z,15.42
2022-11-08T12:50:17.935Z,16.34
2022-11-08T12:53:03.634Z,16.66
2022-11-08T12:55:36.026Z,16.24
2022-11-08T12:58:10.190Z,16.15
2022-11-08T13:00:41.734Z,16.42
2022-11-08T13:03:30.008Z,16.31
2022-11-08T13:06:08.631Z,16.29
2022-11-08T13:08:45.385Z,15.94
2022-11-08T13:11:22.558Z,15.87
2022-11-08T13:13:53.043Z,15.07
2022-11-08T13:16:22.159Z,14.62
2022-11-08T13:18:52.732Z,14.40
2022-11-08T13:21:41.113Z,14.73
2022-11-08T13:24:45.294Z,14.78
2022-11-08T13:27:37.917Z,14.92
2022-11-08T13:30:33.140Z,14.65
2022-11-08T13:33:13.147Z,14.31
2022-11-08T13:35:48.215Z,14.55
2022-11-08T13:38:27.056Z,14.64
2022-11-08T13:41:14.333Z,14.52
2022-11-08T13:43:42.199Z,14.43
2022-11-08T13:46:55.599Z,14.34
2022-11-08T13:49:24.757Z,14.38
2022-11-08T13:52:30.886Z,14.23
2022-11-08T13:54:59.983Z,14.25
2022-11-08T13:57:57.118Z,14.18
2022-11-08T14:00:44.006Z,13.77
2022-11-08T14:03:49.325Z,13.77
2022-11-08T14:06:24.722Z,13.21
2022-11-08T14:09:02.055Z,13.76
2022-11-08T14:11:45.958Z,13.68
2022-11-08T14:14:38.458Z,13.69
2022-11-08T14:17:29.777Z,13.61
2022-11-08T14:19:59.034Z,13.66
2022-11-08T14:22:29.052Z,13.58
2022-11-08T14:25:08.116Z,13.64
2022-11-08T14:27:39.791Z,13.75
2022-11-08T14:30:16.365Z,13.74
2022-11-08T14:32:44.216Z,13.77
2022-11-08T14:35:21.926Z,13.76
2022-11-08T14:37:49.940Z,13.69
2022-11-08T14:40:19.834Z,13.70
2022-11-08T14:42:50.017Z,13.72
2022-11-08T14:45:25.484Z,13.74
2022-11-08T14:47:55.233Z,13.72
2022-11-08T14:50:25.124Z,13.79
2022-11-08T14:52:52.873Z,13.80
2022-11-08T14:55:25.009Z,13.70
2022-11-08T14:57:54.047Z,13.69
2022-11-08T15:00:27.909Z,13.59
2022-11-08T15:02:57.561Z,13.60
2022-11-08T15:05:33.179Z,13.52
2022-11-08T15:08:03.216Z,13.53
2022-11-08T15:10:30.979Z,13.36
2022-11-08T15:13:00.130Z,13.41
2022-11-08T15:15:30.791Z,13.43
2022-11-08T15:18:14.724Z,13.43
2022-11-08T15:20:55.175Z,13.42
2022-11-08T15:23:33.836Z,13.41
2022-11-08T15:26:02.230Z,12.86
2022-11-08T15:28:35.382Z,13.39
2022-11-08T15:31:05.365Z,13.32
2022-11-08T15:33:37.964Z,13.27
2022-11-08T15:36:13.345Z,13.21
2022-11-08T15:38:43.248Z,13.21
2022-11-08T15:41:31.416Z,13.02
2022-11-08T15:44:15.035Z,13.18
2022-11-08T15:46:43.286Z,13.13
2022-11-08T15:49:17.921Z,13.13
2022-11-08T15:51:45.835Z,13.06
2022-11-08T15:54:13.906Z,13.00
2022-11-08T15:56:42.743Z,12.88
2022-11-08T15:59:21.337Z,12.96
2022-11-08T16:01:55.513Z,12.94
2022-11-08T16:04:23.560Z,12.96
2022-11-08T16:06:51.456Z,12.96
2022-11-08T16:09:19.261Z,12.98
2022-11-08T16:11:47.804Z,12.92
2022-11-08T16:14:19.501Z,12.89
2022-11-08T16:16:47.519Z,13.02
2022-11-08T16:19:19.870Z,12.96
2022-11-08T16:21:48.270Z,12.99
2022-11-08T16:24:16.281Z,13.01
2022-11-08T16:26:45.339Z,12.97
2022-11-08T16:29:20.945Z,12.99
2022-11-08T16:31:48.818Z,12.95
2022-11-08T16:34:16.575Z,12.92
2022-11-08T16:36:46.000Z,12.83
2022-11-08T16:39:16.639Z,13.03
2022-11-08T16:41:44.636Z,13.02
2022-11-08T16:44:12.966Z,12.94
2022-11-08T16:46:42.247Z,13.21
2022-11-08T16:49:20.499Z,13.00
2022-11-08T16:51:48.764Z,13.23
2022-11-08T16:54:19.479Z,13.23
2022-11-08T16:56:47.244Z,13.29
2022-11-08T16:59:15.578Z,13.36
2022-11-08T17:01:45.407Z,13.37
2022-11-08T17:04:13.187Z,13.34
2022-11-08T17:06:41.058Z,13.37
2022-11-08T17:09:08.770Z,13.45
2022-11-08T17:11:38.121Z,13.47
2022-11-08T17:14:05.844Z,13.53
2022-11-08T17:16:33.624Z,13.48
2022-11-08T17:19:04.278Z,13.52
2022-11-08T17:21:46.081Z,13.41
2022-11-08T17:24:20.869Z,13.50
2022-11-08T17:26:49.167Z,13.50
2022-11-08T17:29:16.866Z,11.54
2022-11-08T17:31:44.535Z,13.59
2022-11-08T17:34:13.640Z,13.38
2022-11-08T17:36:41.339Z,13.57
2022-11-08T17:39:09.497Z,13.58
2022-11-08T17:41:37.172Z,13.59
2022-11-08T17:44:05.018Z,13.55
2022-11-08T17:46:32.860Z,13.47
2022-11-08T17:49:00.499Z,13.51
2022-11-08T17:51:29.557Z,13.46
2022-11-08T17:53:57.269Z,13.50
2022-11-08T17:56:24.983Z,13.53
2022-11-08T17:58:52.681Z,13.52
2022-11-08T18:01:20.771Z,13.62
2022-11-08T18:03:48.871Z,13.52
2022-11-08T18:06:16.706Z,13.52
2022-11-08T18:08:45.769Z,13.51
2022-11-08T18:11:13.492Z,13.48
2022-11-08T18:13:41.228Z,13.57
2022-11-08T18:16:10.861Z,13.37
2022-11-08T18:18:39.183Z,13.39
2022-11-08T18:21:07.506Z,13.16
2022-11-08T18:23:35.713Z,13.45
2022-11-08T18:26:05.133Z,13.30
2022-11-08T18:28:32.878Z,13.44
2022-11-08T18:31:05.944Z,13.07
2022-11-08T18:33:33.995Z,13.38
2022-11-08T18:36:05.353Z,13.31
2022-11-08T18:38:35.483Z,13.33
2022-11-08T18:41:04.570Z,13.29
2022-11-08T18:43:32.325Z,13.28
2022-11-08T18:46:03.864Z,13.16
2022-11-08T18:48:32.362Z,13.15
2022-11-08T18:51:00.347Z,13.05
2022-11-08T18:53:27.987Z,13.34
2022-11-08T18:55:55.629Z,13.33
2022-11-08T18:58:24.955Z,13.34
2022-11-08T19:00:53.434Z,13.15
2022-11-08T19:03:21.471Z,13.31
2022-11-08T19:05:49.302Z,13.28
2022-11-08T19:08:19.885Z,13.01
2022-11-08T19:10:51.417Z,13.27
2022-11-08T19:13:19.690Z,13.30
2022-11-08T19:15:56.921Z,13.15
2022-11-08T19:18:25.104Z,12.98
2022-11-08T19:20:57.153Z,13.24
2022-11-08T19:23:26.047Z,13.13
2022-11-08T19:25:58.684Z,13.25
2022-11-08T19:28:31.634Z,12.92
2022-11-08T19:31:02.070Z,13.23
2022-11-08T19:33:31.876Z,13.19
2022-11-08T19:36:05.259Z,13.20
2022-11-08T19:38:35.148Z,12.78
2022-11-08T19:41:05.177Z,13.19
2022-11-08T19:43:37.047Z,13.22
2022-11-08T19:46:08.529Z,13.04
2022-11-08T19:48:38.621Z,13.15
2022-11-08T19:51:08.899Z,13.17
2022-11-08T19:53:36.611Z,13.12
2022-11-08T19:56:06.473Z,13.07
2022-11-08T19:58:35.265Z,13.01
2022-11-08T20:01:09.643Z,12.97
2022-11-08T20:03:37.717Z,12.79
2022-11-08T20:06:06.539Z,12.77
2022-11-08T20:08:34.666Z,12.67
2022-11-08T20:11:02.470Z,12.50
2022-11-08T20:13:30.167Z,12.61
2022-11-08T20:16:10.907Z,12.54
2022-11-08T20:18:38.725Z,12.58
2022-11-08T20:21:07.083Z,12.56
2022-11-08T20:23:35.559Z,12.57
2022-11-08T20:26:04.410Z,12.67
2022-11-08T20:28:32.374Z,12.70
2022-11-08T20:31:04.055Z,12.63
2022-11-08T20:33:36.502Z,12.63
2022-11-08T20:36:06.167Z,12.16
2022-11-08T20:38:34.687Z,12.57
2022-11-08T20:41:02.498Z,12.58
2022-11-08T20:43:31.167Z,12.46
2022-11-08T20:46:02.228Z,12.45
2022-11-08T20:48:30.056Z,12.25
2022-11-08T20:50:59.993Z,12.38
2022-11-08T20:53:29.380Z,12.14
2022-11-08T20:55:58.171Z,12.39
2022-11-08T20:58:26.766Z,12.32
2022-11-08T21:00:58.772Z,12.37
2022-11-08T21:03:27.895Z,12.11
2022-11-08T21:05:57.583Z,12.31
2022-11-08T21:11:15.935Z,12.10
2022-11-08T21:13:44.956Z,12.15
2022-11-08T21:16:29.425Z,12.11
2022-11-08T21:18:58.802Z,12.07
2022-11-08T21:21:26.871Z,11.82
2022-11-08T21:23:55.940Z,11.96
2022-11-08T21:26:25.140Z,12.02
2022-11-08T21:28:53.158Z,12.03
2022-11-08T21:31:20.955Z,11.97
2022-11-08T21:33:48.698Z,11.95
2022-11-08T21:36:17.435Z,11.95
2022-11-08T21:38:45.487Z,11.92
2022-11-08T21:41:14.514Z,11.90
2022-11-08T21:43:44.036Z,11.86
2022-11-08T21:46:16.904Z,11.81
2022-11-08T21:48:44.823Z,11.90
2022-11-08T21:51:12.775Z,11.79
2022-11-08T21:53:49.372Z,11.84
2022-11-08T21:56:23.560Z,11.96
2022-11-08T21:58:51.323Z,12.01
2022-11-08T22:01:19.785Z,12.09
2022-11-08T22:03:47.859Z,12.12
2022-11-08T22:06:15.841Z,12.00
2022-11-08T22:08:43.573Z,12.07
2022-11-08T22:11:11.294Z,12.11
2022-11-08T22:13:40.516Z,12.10
2022-11-08T22:16:08.597Z,12.09
2022-11-08T22:19:03.710Z,12.04
2022-11-08T22:21:39.305Z,11.97
2022-11-08T22:24:07.766Z,12.01
2022-11-08T22:26:35.578Z,11.95
2022-11-08T22:29:04.774Z,11.88
2022-11-08T22:31:32.756Z,11.90
2022-11-08T22:34:00.602Z,11.83
2022-11-08T22:36:28.544Z,11.60
2022-11-08T22:38:56.343Z,11.75
2022-11-08T22:41:24.429Z,11.76
2022-11-08T22:43:52.671Z,11.79
2022-11-08T22:46:21.720Z,11.74
2022-11-08T22:48:49.693Z,11.73
2022-11-08T22:51:18.021Z,11.70
2022-11-08T22:53:45.754Z,11.69
2022-11-08T22:56:13.449Z,11.71
2022-11-08T22:58:41.300Z,11.65
2022-11-08T23:01:11.797Z,11.70
2022-11-08T23:03:41.561Z,11.68
2022-11-08T23:06:10.396Z,11.57
2022-11-08T23:08:38.222Z,11.65
2022-11-08T23:11:23.860Z,11.61
2022-11-08T23:14:09.121Z,11.37
2022-11-08T23:16:40.086Z,11.48
2022-11-08T23:19:29.210Z,11.60
2022-11-08T23:22:14.735Z,11.41
2022-11-08T23:24:43.620Z,11.35
2022-11-08T23:27:30.639Z,11.56
2022-11-08T23:30:15.985Z,11.53
2022-11-08T23:32:44.996Z,11.54
2022-11-08T23:35:14.631Z,11.53
2022-11-08T23:37:42.781Z,11.56
2022-11-08T23:40:30.453Z,11.54
2022-11-08T23:43:27.416Z,11.57
2022-11-08T23:45:55.119Z,11.53
2022-11-08T23:48:22.820Z,11.56
2022-11-08T23:50:53.866Z,11.60
2022-11-08T23:53:25.031Z,11.59
2022-11-08T23:55:53.641Z,11.34
2022-11-08T23:58:21.731Z,11.53
